Time;durP1;ratioP1;P1;durP2;ratioP2;P2;SDS_P1;SDS_P2;PMS_P1;PMS_P2;Temp;Humidity;BMP_temperature;BMP_pressure;BME280_temperature;BME280_humidity;BME280_pressure;Samples;Min_cycle;Max_cycle;Signal;HPM_P1;HPM_P2
2023/04/20 00:00:48;;;;;;;11.75;7.55;;;;;;;10.40;100.00;100070.50;4993478;28;20073;-70
2023/04/20 00:03:14;;;;;;;11.10;7.43;;;;;;;10.21;100.00;100074.16;4992051;28;20066;-71
2023/04/20 00:05:39;;;;;;;11.32;7.40;;;;;;;10.12;100.00;100063.53;4993369;28;20026;-70
2023/04/20 00:08:05;;;;;;;17.25;7.55;;;;;;;9.96;100.00;100051.88;5030080;28;20494;-68
2023/04/20 00:10:30;;;;;;;9.85;7.60;;;;;;;9.91;100.00;100069.75;5030131;28;20474;-68
2023/04/20 00:12:56;;;;;;;9.30;7.18;;;;;;;9.51;100.00;100068.41;4992354;28;20429;-69
2023/04/20 00:15:21;;;;;;;10.40;7.55;;;;;;;9.32;100.00;100030.81;5020662;28;20040;-71
2023/04/20 00:17:47;;;;;;;10.93;8.00;;;;;;;9.58;100.00;100069.50;5029951;28;20426;-70
2023/04/20 00:20:14;;;;;;;10.45;7.63;;;;;;;9.48;100.00;100046.00;5030203;28;20153;-68
2023/04/20 00:22:39;;;;;;;12.32;7.85;;;;;;;9.47;100.00;100046.81;5029383;28;20049;-71
2023/04/20 00:25:05;;;;;;;15.68;8.02;;;;;;;9.45;100.00;100048.47;5030049;28;20137;-72
2023/04/20 00:27:31;;;;;;;10.68;7.75;;;;;;;9.55;100.00;100047.06;5029291;28;20418;-68
2023/04/20 00:29:56;;;;;;;12.20;8.98;;;;;;;9.60;100.00;100047.25;5029913;28;20041;-71
2023/04/20 00:32:22;;;;;;;10.35;8.23;;;;;;;9.67;100.00;100042.34;5029664;28;20026;-70
2023/04/20 00:34:47;;;;;;;9.57;7.40;;;;;;;9.75;100.00;100041.72;5029535;28;20033;-70
2023/04/20 00:37:13;;;;;;;11.70;7.93;;;;;;;9.60;100.00;100036.94;5029476;28;20503;-70
2023/04/20 00:39:40;;;;;;;15.63;9.13;;;;;;;9.31;100.00;100044.50;5002459;28;20076;-67
2023/04/20 00:42:07;;;;;;;13.43;10.20;;;;;;;9.31;100.00;100049.66;4992313;28;20033;-71
2023/04/20 00:44:33;;;;;;;16.05;12.45;;;;;;;9.29;100.00;100021.28;4991327;28;20034;-67
2023/04/20 00:46:59;;;;;;;13.82;10.25;;;;;;;9.36;100.00;100032.69;4992579;28;20084;-70
2023/04/20 00:49:29;;;;;;;12.07;9.05;;;;;;;9.39;100.00;100035.38;4992673;28;20040;-68
2023/04/20 00:51:58;;;;;;;12.82;8.82;;;;;;;9.09;100.00;99989.69;4991125;28;20025;-68
2023/04/20 00:54:26;;;;;;;11.32;8.70;;;;;;;9.34;100.00;100031.75;4992354;28;20084;-70
2023/04/20 00:56:53;;;;;;;12.93;9.10;;;;;;;9.32;100.00;100035.97;4992104;28;20440;-71
2023/04/20 00:59:20;;;;;;;16.10;9.90;;;;;;;9.35;100.00;100041.25;4992839;28;20088;-68
2023/04/20 01:01:46;;;;;;;11.55;8.80;;;;;;;9.30;100.00;100042.78;4993222;28;20023;-67
2023/04/20 01:04:11;;;;;;;12.70;9.60;;;;;;;9.35;100.00;100030.94;4993594;28;20019;-67
2023/04/20 01:06:37;;;;;;;13.77;9.15;;;;;;;9.54;100.00;100041.06;4992725;28;20085;-69
2023/04/20 01:09:02;;;;;;;13.38;9.20;;;;;;;9.67;100.00;100049.19;4991780;28;20030;-69
2023/04/20 01:11:28;;;;;;;13.90;9.48;;;;;;;9.76;100.00;100030.56;4973869;28;20103;-69
2023/04/20 01:13:53;;;;;;;13.32;8.55;;;;;;;9.93;100.00;100036.28;4983096;28;20428;-70
2023/04/20 01:16:19;;;;;;;11.10;8.10;;;;;;;9.90;100.00;100038.78;4991953;28;20404;-68
2023/04/20 01:18:47;;;;;;;13.00;8.40;;;;;;;9.84;100.00;100045.50;4992130;28;20109;-70
2023/04/20 01:21:15;;;;;;;11.13;7.63;;;;;;;9.79;100.00;100036.69;4990800;28;20030;-69
2023/04/20 01:23:41;;;;;;;13.40;8.80;;;;;;;9.83;100.00;100042.84;4980383;28;20118;-72
2023/04/20 01:26:08;;;;;;;10.55;8.32;;;;;;;9.86;100.00;100046.41;4972443;28;20039;-69
2023/04/20 01:28:33;;;;;;;13.55;8.45;;;;;;;9.81;100.00;100041.94;4987587;28;20406;-70
2023/04/20 01:30:59;;;;;;;9.50;8.00;;;;;;;9.76;100.00;100046.94;4972098;28;20026;-71
2023/04/20 01:33:25;;;;;;;8.48;7.20;;;;;;;9.49;100.00;100019.38;4984333;28;20040;-68
2023/04/20 01:35:52;;;;;;;10.35;7.32;;;;;;;9.50;100.00;100036.59;4991372;28;20409;-68
2023/04/20 01:38:21;;;;;;;9.95;6.90;;;;;;;9.44;100.00;100041.53;4991216;28;20058;-72
2023/04/20 01:40:47;;;;;;;11.35;7.78;;;;;;;9.33;100.00;100025.75;4991403;28;20412;-68
2023/04/20 01:43:13;;;;;;;11.52;7.60;;;;;;;9.25;100.00;100037.47;4991748;28;20033;-71
2023/04/20 01:45:38;;;;;;;11.15;7.72;;;;;;;9.12;100.00;100049.03;4991213;28;20511;-68
2023/04/20 01:48:04;;;;;;;11.20;7.80;;;;;;;9.04;100.00;100024.69;4991638;28;20018;-67
2023/04/20 01:50:29;;;;;;;12.30;8.27;;;;;;;9.13;100.00;100034.44;4991187;28;20026;-69
2023/04/20 01:52:55;;;;;;;12.40;7.68;;;;;;;9.09;100.00;100037.75;4991614;28;20038;-68
2023/04/20 01:55:20;;;;;;;10.77;7.82;;;;;;;9.07;100.00;100036.00;4991248;28;20052;-68
2023/04/20 01:57:46;;;;;;;8.98;7.55;;;;;;;9.13;100.00;100045.63;4991510;28;20468;-68
2023/04/20 02:00:12;;;;;;;10.73;7.70;;;;;;;9.20;100.00;100027.00;4991645;28;20462;-68
2023/04/20 02:02:37;;;;;;;11.55;7.13;;;;;;;9.29;100.00;100035.88;4990009;28;20046;-68
2023/04/20 02:05:03;;;;;;;10.13;7.78;;;;;;;9.35;100.00;100029.22;4990876;28;20041;-70
2023/04/20 02:07:29;;;;;;;8.75;7.43;;;;;;;9.37;100.00;100029.28;4988368;28;20026;-69
2023/04/20 02:09:55;;;;;;;11.60;7.55;;;;;;;9.46;100.00;100039.91;4987091;28;20037;-71
2023/04/20 02:12:20;;;;;;;10.10;7.55;;;;;;;9.26;100.00;99999.69;4991077;28;20034;-69
2023/04/20 02:14:46;;;;;;;10.23;7.88;;;;;;;9.44;100.00;100031.25;4990558;28;20022;-72
2023/04/20 02:17:12;;;;;;;9.65;7.72;;;;;;;9.36;100.00;100027.53;4990607;28;20096;-69
2023/04/20 02:19:38;;;;;;;12.98;8.30;;;;;;;9.35;100.00;100028.38;4989707;28;20072;-71
2023/04/20 02:22:04;;;;;;;11.68;8.82;;;;;;;9.28;100.00;100016.09;4990342;28;20034;-69
2023/04/20 02:24:29;;;;;;;10.55;8.20;;;;;;;9.07;100.00;100012.81;4991084;28;20050;-71
2023/04/20 02:26:55;;;;;;;11.23;8.35;;;;;;;9.08;100.00;100018.81;4989856;28;20034;-70
2023/04/20 02:29:21;;;;;;;12.88;8.48;;;;;;;9.09;100.00;100022.28;4990588;28;20041;-71
2023/04/20 02:31:46;;;;;;;12.13;8.55;;;;;;;9.01;100.00;100029.72;4991125;28;20034;-69
2023/04/20 02:34:12;;;;;;;13.85;8.95;;;;;;;8.92;100.00;100014.81;4990801;28;20070;-70
2023/04/20 02:36:37;;;;;;;15.43;9.65;;;;;;;9.03;100.00;100028.97;4990450;28;20085;-71
2023/04/20 02:39:03;;;;;;;13.27;8.88;;;;;;;9.11;100.00;100020.63;4990547;28;20026;-69
2023/04/20 02:41:28;;;;;;;12.70;9.15;;;;;;;9.16;100.00;100024.25;4990880;28;20033;-70
2023/04/20 02:43:54;;;;;;;13.55;10.40;;;;;;;9.12;100.00;100015.56;4990491;28;20058;-68
2023/04/20 02:46:19;;;;;;;14.40;10.13;;;;;;;9.17;100.00;100023.41;4990707;28;20121;-72
2023/04/20 02:48:45;;;;;;;13.18;9.32;;;;;;;9.23;100.00;100019.38;4990185;28;20042;-71
2023/04/20 02:51:11;;;;;;;12.88;9.90;;;;;;;9.16;100.00;100024.25;4991746;28;20037;-71
2023/04/20 02:53:36;;;;;;;12.93;10.15;;;;;;;9.18;100.00;100025.19;5000093;28;20027;-71
2023/04/20 02:56:02;;;;;;;14.27;10.90;;;;;;;9.12;100.00;100015.56;4990582;28;20085;-71
2023/04/20 02:58:27;;;;;;;12.73;10.85;;;;;;;9.12;100.00;100032.69;4990646;28;20084;-71
2023/04/20 03:01:01;;;;;;;14.65;10.68;;;;;;;9.11;100.00;100021.53;4990723;28;20026;-71
2023/04/20 03:03:27;;;;;;;13.93;10.98;;;;;;;9.17;100.00;100026.91;4989448;28;20034;-69
2023/04/20 03:05:54;;;;;;;15.07;11.20;;;;;;;9.16;100.00;100025.13;4990174;28;20018;-71
2023/04/20 03:08:20;;;;;;;17.98;10.80;;;;;;;9.15;100.00;100014.78;4990699;28;20022;-69
2023/04/20 03:10:45;;;;;;;15.90;10.88;;;;;;;9.14;100.00;100011.31;4990103;28;20038;-71
2023/04/20 03:13:11;;;;;;;17.33;11.18;;;;;;;8.93;100.00;99989.97;4990596;28;20058;-70
2023/04/20 03:15:36;;;;;;;14.77;11.07;;;;;;;9.01;100.00;100019.41;4990215;28;20023;-72
2023/04/20 03:18:02;;;;;;;16.00;10.77;;;;;;;8.84;100.00;99991.38;4990295;28;20018;-70
2023/04/20 03:20:28;;;;;;;13.13;9.65;;;;;;;9.06;100.00;100031.66;4989770;28;20026;-69
2023/04/20 03:22:53;;;;;;;17.52;11.57;;;;;;;9.01;100.00;100037.44;4990084;28;20046;-70
2023/04/20 03:25:19;;;;;;;14.07;10.93;;;;;;;9.01;100.00;100029.72;4990385;28;20405;-70
2023/04/20 03:27:46;;;;;;;14.27;10.90;;;;;;;8.94;100.00;100018.34;4990407;28;20156;-70
2023/04/20 03:30:12;;;;;;;15.75;11.55;;;;;;;8.94;100.00;100031.22;4989994;28;20385;-71
2023/04/20 03:32:37;;;;;;;14.65;10.77;;;;;;;8.95;100.00;100029.50;4990042;28;20037;-71
2023/04/20 03:35:04;;;;;;;15.77;10.98;;;;;;;8.86;100.00;100041.22;4990330;28;20396;-70
2023/04/20 03:37:30;;;;;;;16.17;11.57;;;;;;;8.82;100.00;100029.06;4991089;28;20030;-71
2023/04/20 03:39:55;;;;;;;14.95;12.02;;;;;;;8.89;100.00;100032.75;5008867;28;20041;-71
2023/04/20 03:42:21;;;;;;;15.10;11.70;;;;;;;8.93;100.00;100039.75;4993471;28;20030;-69
2023/04/20 03:44:46;;;;;;;17.05;12.45;;;;;;;8.99;100.00;100039.09;4993609;28;20034;-69
2023/04/20 03:47:12;;;;;;;17.35;12.07;;;;;;;9.04;100.00;100045.28;4993670;28;20034;-70
2023/04/20 03:49:39;;;;;;;17.80;12.38;;;;;;;9.01;100.00;100035.75;4993527;28;20061;-71
2023/04/20 03:52:04;;;;;;;17.02;12.55;;;;;;;8.92;100.00;100006.22;4993560;28;20114;-71
2023/04/20 03:54:30;;;;;;;17.77;12.90;;;;;;;9.13;100.00;100040.47;4993691;28;20463;-68
2023/04/20 03:56:55;;;;;;;18.85;14.85;;;;;;;9.10;100.00;100036.91;4993268;28;20044;-70
2023/04/20 03:59:21;;;;;;;18.38;13.85;;;;;;;9.09;100.00;100030.03;4993631;28;20026;-71
2023/04/20 04:01:46;;;;;;;20.70;16.63;;;;;;;9.03;100.00;100017.78;4993270;28;20026;-71
2023/04/20 04:04:12;;;;;;;19.92;15.05;;;;;;;9.22;100.00;100052.78;4990956;28;20045;-71
2023/04/20 04:06:37;;;;;;;20.30;14.82;;;;;;;9.26;100.00;100058.94;4992884;28;20034;-71
2023/04/20 04:09:03;;;;;;;20.20;14.50;;;;;;;9.23;100.00;100051.97;4993154;28;20026;-70
2023/04/20 04:11:29;;;;;;;21.58;15.55;;;;;;;9.25;100.00;100059.78;4994095;28;20030;-70
2023/04/20 04:13:56;;;;;;;21.70;15.90;;;;;;;9.31;100.00;100057.38;5001585;28;20472;-71
2023/04/20 04:16:22;;;;;;;22.20;15.80;;;;;;;9.33;100.00;100058.34;4992746;28;20113;-70
2023/04/20 04:18:47;;;;;;;19.85;15.13;;;;;;;9.35;100.00;100057.56;4989722;28;20030;-70
2023/04/20 04:21:12;;;;;;;25.98;16.17;;;;;;;9.35;100.00;100062.72;4988932;28;20084;-70
2023/04/20 04:23:38;;;;;;;20.60;15.30;;;;;;;9.34;100.00;100066.09;4992943;28;20532;-70
2023/04/20 04:26:04;;;;;;;22.02;15.68;;;;;;;9.36;100.00;100067.03;4993136;28;20030;-70
2023/04/20 04:28:30;;;;;;;22.92;16.27;;;;;;;9.30;100.00;100053.94;4992289;28;20492;-70
2023/04/20 04:30:56;;;;;;;20.27;15.55;;;;;;;9.36;100.00;100068.75;4992936;28;20523;-70
2023/04/20 04:33:22;;;;;;;23.52;16.50;;;;;;;9.34;100.00;100054.94;4992021;28;20022;-70
2023/04/20 04:35:48;;;;;;;22.35;16.92;;;;;;;9.30;100.00;100047.94;4992200;28;20117;-70
2023/04/20 04:38:14;;;;;;;23.13;17.42;;;;;;;9.35;100.00;100056.69;4992548;28;20042;-70
2023/04/20 04:40:40;;;;;;;21.17;16.48;;;;;;;9.33;100.00;100038.63;4992532;28;20034;-69
2023/04/20 04:43:08;;;;;;;21.23;17.05;;;;;;;9.17;100.00;100011.44;4992343;28;21109;-70
2023/04/20 04:45:38;;;;;;;22.65;16.98;;;;;;;9.32;100.00;100046.28;4992531;28;20101;-71
2023/04/20 04:48:04;;;;;;;21.75;16.48;;;;;;;9.36;100.00;100053.31;4992016;28;20031;-70
2023/04/20 04:50:29;;;;;;;25.27;17.13;;;;;;;9.30;100.00;100040.22;4991375;28;20065;-70
2023/04/20 04:52:55;;;;;;;25.45;18.15;;;;;;;9.25;100.00;100039.19;4992576;28;20042;-74
2023/04/20 04:55:21;;;;;;;28.92;18.98;;;;;;;9.29;100.00;100044.47;4990813;28;20026;-70
2023/04/20 04:57:46;;;;;;;25.83;18.23;;;;;;;9.34;100.00;100054.94;4993188;28;20061;-72
2023/04/20 05:00:12;;;;;;;24.50;18.10;;;;;;;9.41;100.00;100051.75;4993833;28;20034;-71
2023/04/20 05:02:38;;;;;;;23.75;17.38;;;;;;;9.43;100.00;100055.25;4991633;28;20045;-71
2023/04/20 05:05:04;;;;;;;22.90;15.85;;;;;;;9.47;100.00;100056.22;4992193;28;20018;-69
2023/04/20 05:07:29;;;;;;;20.75;16.02;;;;;;;9.50;100.00;100053.78;4987464;28;20405;-70
2023/04/20 05:09:55;;;;;;;28.42;17.90;;;;;;;9.51;100.00;100053.81;4985345;28;20178;-69
2023/04/20 05:12:20;;;;;;;25.75;16.15;;;;;;;9.63;100.00;100055.97;4977725;28;20039;-69
2023/04/20 05:14:46;;;;;;;19.98;14.90;;;;;;;9.65;100.00;100049.13;4991842;28;20018;-70
2023/04/20 05:17:11;;;;;;;21.23;16.35;;;;;;;9.70;100.00;100045.00;4991388;28;20041;-70
2023/04/20 05:19:36;;;;;;;24.67;18.63;;;;;;;9.76;100.00;100059.81;4991756;28;20026;-69
2023/04/20 05:22:02;;;;;;;57.90;35.25;;;;;;;9.72;100.00;100039.94;4978274;28;20503;-70
2023/04/20 05:24:27;;;;;;;45.65;29.75;;;;;;;9.85;100.00;100057.53;4978533;28;20050;-70
2023/04/20 05:26:53;;;;;;;53.35;32.95;;;;;;;9.72;100.00;100063.13;4991363;28;20033;-71
2023/04/20 05:29:19;;;;;;;46.40;28.80;;;;;;;9.45;100.00;100022.69;5005272;28;20050;-69
2023/04/20 05:31:44;;;;;;;47.72;30.88;;;;;;;9.65;100.00;100061.16;5005131;28;20489;-70
2023/04/20 05:34:10;;;;;;;64.88;38.17;;;;;;;9.69;100.00;100063.00;4991310;28;20105;-70
2023/04/20 05:36:35;;;;;;;31.85;22.38;;;;;;;9.73;100.00;100057.13;4991451;28;20097;-68
2023/04/20 05:39:01;;;;;;;23.67;17.98;;;;;;;9.90;100.00;100054.25;4978457;28;20033;-70
2023/04/20 05:41:27;;;;;;;18.88;16.15;;;;;;;10.03;100.00;100065.00;4991000;28;20042;-70
2023/04/20 05:43:53;;;;;;;22.40;15.18;;;;;;;10.12;100.00;100053.22;4989718;28;20077;-69
2023/04/20 05:46:19;;;;;;;19.30;14.65;;;;;;;10.30;100.00;100053.81;4979290;28;20173;-69
2023/04/20 05:48:45;;;;;;;17.98;15.00;;;;;;;10.46;100.00;100052.59;4990844;28;20033;-71
2023/04/20 05:51:11;;;;;;;17.27;13.93;;;;;;;10.42;100.00;100029.22;4983286;28;20038;-70
2023/04/20 05:53:36;;;;;;;16.83;14.23;;;;;;;10.80;100.00;100069.13;4982334;28;20053;-68
2023/04/20 05:56:02;;;;;;;15.50;13.43;;;;;;;10.76;100.00;100025.09;4990976;28;20037;-69
2023/04/20 05:58:28;;;;;;;15.38;12.15;;;;;;;11.12;100.00;100056.25;4991073;28;20156;-70
2023/04/20 06:00:53;;;;;;;15.55;12.85;;;;;;;11.27;100.00;100068.72;4990424;28;20109;-68
2023/04/20 06:03:19;;;;;;;15.75;13.40;;;;;;;11.43;100.00;100063.97;4991248;28;20120;-68
2023/04/20 06:05:44;;;;;;;18.65;13.68;;;;;;;11.61;100.00;100067.06;4991045;28;20026;-72
2023/04/20 06:08:10;;;;;;;13.43;11.52;;;;;;;11.61;100.00;100064.47;4990964;28;20034;-71
2023/04/20 06:10:35;;;;;;;15.88;10.75;;;;;;;11.65;100.00;100079.22;4991158;28;20477;-69
2023/04/20 06:13:01;;;;;;;13.90;10.23;;;;;;;11.79;100.00;100086.47;4990350;28;20093;-71
2023/04/20 06:15:26;;;;;;;13.25;10.88;;;;;;;11.73;100.00;100078.56;4990675;28;20038;-69
2023/04/20 06:17:52;;;;;;;16.13;10.77;;;;;;;11.73;100.00;100078.56;5005987;28;20061;-72
2023/04/20 06:20:19;;;;;;;12.57;10.02;;;;;;;11.83;100.00;100085.72;4990260;28;20081;-70
2023/04/20 06:22:45;;;;;;;12.95;10.85;;;;;;;11.79;100.00;100077.00;4989820;28;20034;-69
2023/04/20 06:25:11;;;;;;;16.02;11.23;;;;;;;11.93;100.00;100081.66;4988715;28;20484;-71
2023/04/20 06:27:37;;;;;;;12.50;9.35;;;;;;;11.78;100.00;100072.66;4988831;28;20026;-72
2023/04/20 06:30:03;;;;;;;12.40;10.20;;;;;;;11.90;100.00;100072.09;4988152;28;20481;-72
2023/04/20 06:32:28;;;;;;;13.45;10.35;;;;;;;12.02;100.00;100066.38;4988517;28;20405;-70
2023/04/20 06:34:54;;;;;;;11.73;9.70;;;;;;;12.12;100.00;100086.47;4988801;28;20026;-68
2023/04/20 06:37:19;;;;;;;13.43;10.30;;;;;;;12.23;100.00;100086.72;4988300;28;20038;-71
2023/04/20 06:39:45;;;;;;;13.23;9.23;;;;;;;12.19;100.00;100095.25;4988322;28;20046;-72
2023/04/20 06:42:10;;;;;;;11.95;8.70;;;;;;;11.98;100.00;100067.13;4988776;28;20073;-71
2023/04/20 06:44:36;;;;;;;14.73;10.05;;;;;;;12.05;100.00;100069.03;4988113;28;20026;-71
2023/04/20 06:47:01;;;;;;;12.10;9.10;;;;;;;12.36;100.00;100087.00;4988033;28;20033;-71
2023/04/20 06:49:27;;;;;;;11.02;9.10;;;;;;;12.45;100.00;100085.50;4989223;28;20018;-71
2023/04/20 06:51:52;;;;;;;11.05;9.05;;;;;;;12.47;100.00;100082.94;4989847;28;20076;-70
2023/04/20 06:54:17;;;;;;;12.30;9.18;;;;;;;12.39;100.00;100045.69;4988386;28;20030;-72
2023/04/20 06:56:43;;;;;;;9.85;8.27;;;;;;;12.80;100.00;100089.75;5016125;28;20042;-69
2023/04/20 06:59:08;;;;;;;9.82;7.63;;;;;;;12.74;100.00;100098.25;4989591;28;20029;-72
2023/04/20 07:01:34;;;;;;;9.48;8.48;;;;;;;12.84;100.00;100094.13;4989727;28;20050;-71
2023/04/20 07:03:59;;;;;;;9.38;7.82;;;;;;;12.86;100.00;100099.34;4987200;28;20035;-70
2023/04/20 07:06:26;;;;;;;10.60;8.45;;;;;;;13.05;100.00;100090.25;4985583;28;20030;-70
2023/04/20 07:08:52;;;;;;;9.50;8.18;;;;;;;13.08;100.00;100096.38;4976029;28;20118;-72
2023/04/20 07:11:17;;;;;;;14.18;8.68;;;;;;;13.04;100.00;100089.38;4985750;28;20449;-73
2023/04/20 07:13:42;;;;;;;11.40;8.45;;;;;;;13.12;100.00;100086.94;4990892;28;20027;-71
2023/04/20 07:16:09;;;;;;;13.93;8.68;;;;;;;13.38;100.00;100090.09;4991821;28;20401;-71
2023/04/20 07:18:35;;;;;;;11.18;7.65;;;;;;;13.41;100.00;100086.69;4991857;28;20037;-73
2023/04/20 07:21:00;;;;;;;14.52;11.88;;;;;;;13.52;100.00;100081.69;4993242;28;20041;-72
2023/04/20 07:23:26;;;;;;;11.65;8.10;;;;;;;13.63;100.00;100069.78;4984169;28;20205;-72
2023/04/20 07:25:51;;;;;;;11.73;8.38;;;;;;;13.90;100.00;100082.38;4978506;28;20112;-71
2023/04/20 07:28:17;;;;;;;6.97;5.93;;;;;;;13.89;100.00;100087.53;4983921;28;20038;-72
2023/04/20 07:30:42;;;;;;;8.68;6.40;;;;;;;13.82;100.00;100081.38;4982206;28;20069;-72
2023/04/20 07:33:09;;;;;;;7.82;5.78;;;;;;;13.92;100.00;100072.03;4982570;28;20023;-72
2023/04/20 07:35:35;;;;;;;9.77;6.18;;;;;;;14.01;100.00;100105.91;4992945;28;20105;-70
2023/04/20 07:38:01;;;;;;;9.10;6.72;;;;;;;14.10;100.00;100086.16;4993611;28;20469;-70
2023/04/20 07:40:26;;;;;;;10.82;7.05;;;;;;;14.26;100.00;100071.72;4991020;28;20054;-76
2023/04/20 07:42:51;;;;;;;12.35;7.07;;;;;;;14.43;100.00;100066.75;4993278;28;20374;-70
2023/04/20 07:45:17;;;;;;;9.55;5.90;;;;;;;14.57;99.78;100086.88;4993094;28;20065;-69
2023/04/20 07:47:45;;;;;;;9.18;6.45;;;;;;;14.28;100.00;100044.91;4993413;28;20054;-69
2023/04/20 07:50:11;;;;;;;8.93;6.18;;;;;;;14.49;100.00;100079.84;4993158;28;20054;-69
2023/04/20 07:52:36;;;;;;;8.63;6.75;;;;;;;14.45;100.00;100088.44;4993843;28;20060;-72
2023/04/20 07:55:04;;;;;;;8.45;6.03;;;;;;;14.39;100.00;100090.09;4993027;28;20080;-68
2023/04/20 07:57:29;;;;;;;7.78;5.63;;;;;;;14.24;100.00;100033.63;4990499;28;20042;-70
2023/04/20 07:59:55;;;;;;;8.55;5.85;;;;;;;14.55;100.00;100088.59;4992921;28;20034;-72
2023/04/20 08:02:20;;;;;;;8.98;6.40;;;;;;;14.68;100.00;100089.69;4993251;28;20033;-70
2023/04/20 08:04:47;;;;;;;9.77;6.65;;;;;;;14.79;100.00;100078.53;4992959;28;20566;-70
2023/04/20 08:07:13;;;;;;;7.95;5.50;;;;;;;14.87;100.00;100074.34;4993101;28;20228;-70
2023/04/20 08:09:38;;;;;;;8.50;7.20;;;;;;;14.94;100.00;100072.69;4992176;28;20485;-70
2023/04/20 08:12:04;;;;;;;8.35;7.05;;;;;;;15.02;100.00;100066.72;4992647;28;20034;-71
2023/04/20 08:14:30;;;;;;;8.10;6.80;;;;;;;15.04;100.00;100066.72;4987971;28;20113;-70
2023/04/20 08:16:56;;;;;;;8.25;6.30;;;;;;;15.20;100.00;100078.19;4993434;28;20527;-71
2023/04/20 08:19:22;;;;;;;10.68;6.40;;;;;;;14.96;99.77;100056.25;4990925;28;20034;-70
2023/04/20 08:21:47;;;;;;;8.73;7.15;;;;;;;15.15;100.00;100059.06;4993124;28;20095;-70
2023/04/20 08:24:13;;;;;;;8.10;6.95;;;;;;;15.43;100.00;100069.78;4993448;28;20058;-70
2023/04/20 08:26:38;;;;;;;9.48;6.38;;;;;;;15.31;97.78;100066.19;4992929;28;20061;-71
2023/04/20 08:29:04;;;;;;;7.72;6.00;;;;;;;15.46;96.46;100064.63;4992901;28;20108;-71
2023/04/20 08:31:30;;;;;;;10.73;7.07;;;;;;;15.42;98.06;100037.69;4992953;28;20409;-68
2023/04/20 08:33:56;;;;;;;7.25;6.38;;;;;;;15.58;96.26;100062.13;4992993;28;20023;-68
2023/04/20 08:36:22;;;;;;;8.02;6.57;;;;;;;15.65;97.19;100063.06;4992934;28;20026;-70
2023/04/20 08:39:04;;;;;;;7.28;6.20;;;;;;;15.52;98.05;100023.91;4991406;28;20058;-70
2023/04/20 08:41:30;;;;;;;9.13;6.40;;;;;;;15.88;93.55;100062.44;4992848;28;20115;-67
2023/04/20 08:43:55;;;;;;;8.45;6.70;;;;;;;15.99;92.50;100058.22;4992371;28;20057;-70
2023/04/20 08:46:21;;;;;;;10.07;6.90;;;;;;;16.00;93.55;100066.03;4993001;28;20069;-69
2023/04/20 08:48:47;;;;;;;9.80;6.47;;;;;;;15.96;91.23;100074.69;4992640;28;20535;-69
2023/04/20 08:51:16;;;;;;;11.48;7.47;;;;;;;15.86;97.29;100070.22;4994034;28;20030;-67
2023/04/20 08:53:41;;;;;;;8.70;7.05;;;;;;;15.86;97.99;100057.22;4993783;28;20507;-72
2023/04/20 08:56:07;;;;;;;31.75;17.45;;;;;;;16.01;93.24;100065.16;4992788;28;20030;-69
2023/04/20 08:58:32;;;;;;;9.85;6.97;;;;;;;15.99;95.82;100055.59;4992763;28;20027;-69
2023/04/20 09:00:59;;;;;;;13.43;8.18;;;;;;;16.03;93.80;100049.53;4992620;28;20022;-70
2023/04/20 09:03:36;;;;;;;15.57;10.55;;;;;;;16.09;92.90;100061.75;4991084;28;20018;-67
2023/04/20 09:06:03;;;;;;;8.02;6.45;;;;;;;16.26;94.33;100056.66;4992353;28;20041;-70
2023/04/20 09:08:37;;;;;;;15.05;8.32;;;;;;;16.53;93.77;100053.34;4992492;28;20030;-70
2023/04/20 09:11:02;;;;;;;7.63;6.65;;;;;;;16.78;95.60;100056.09;4992437;28;20081;-74
2023/04/20 09:13:28;;;;;;;9.15;6.85;;;;;;;16.40;91.76;100020.25;4992428;28;20500;-71
2023/04/20 09:15:55;;;;;;;9.48;6.50;;;;;;;16.70;92.16;100057.78;4992077;28;20027;-70
2023/04/20 09:18:22;;;;;;;9.23;6.43;;;;;;;16.79;93.03;100047.41;4992494;28;20030;-71
2023/04/20 09:20:48;;;;;;;8.02;6.10;;;;;;;16.60;90.81;100051.69;4991684;28;20030;-71
2023/04/20 09:23:18;;;;;;;8.15;7.18;;;;;;;16.85;92.42;100056.97;4991663;28;20057;-68
2023/04/20 09:25:51;;;;;;;9.25;6.78;;;;;;;16.83;88.65;100012.66;4991235;28;20034;-74
2023/04/20 09:28:18;;;;;;;8.75;6.65;;;;;;;17.11;90.16;100007.59;4991856;28;20034;-68
2023/04/20 09:30:48;;;;;;;11.15;6.65;;;;;;;17.29;91.08;100041.53;4992361;28;20100;-70
2023/04/20 09:33:13;;;;;;;8.00;6.53;;;;;;;17.20;88.61;100049.34;4991913;28;20096;-69
2023/04/20 09:35:41;;;;;;;7.25;6.18;;;;;;;17.05;89.88;100037.13;4990020;28;20026;-71
2023/04/20 09:38:07;;;;;;;6.65;5.80;;;;;;;17.05;87.03;100003.22;4991274;28;20092;-68
2023/04/20 09:40:34;;;;;;;9.32;6.30;;;;;;;17.28;88.55;100028.50;4991926;28;20161;-68
2023/04/20 09:43:09;;;;;;;7.97;6.00;;;;;;;17.48;83.95;100031.13;4991721;28;20030;-70
2023/04/20 09:45:37;;;;;;;6.68;5.70;;;;;;;17.29;80.98;99996.31;4990357;28;20037;-70
2023/04/20 09:48:07;;;;;;;8.93;5.90;;;;;;;17.44;84.24;100018.94;4991510;28;20046;-69
2023/04/20 09:50:35;;;;;;;10.55;6.85;;;;;;;17.65;84.56;100018.09;4991943;28;20026;-67
2023/04/20 09:53:02;;;;;;;6.90;5.73;;;;;;;17.37;81.23;100017.19;4991871;28;20031;-69
2023/04/20 09:55:29;;;;;;;8.75;6.20;;;;;;;17.60;81.79;100007.66;4992026;28;20042;-68
2023/04/20 09:57:56;;;;;;;7.90;5.90;;;;;;;17.88;83.85;99992.00;4991516;28;20030;-68
2023/04/20 10:00:22;;;;;;;7.90;5.78;;;;;;;18.24;82.91;100011.16;4991063;28;20038;-69
2023/04/20 10:02:48;;;;;;;10.07;6.07;;;;;;;18.34;82.66;100013.72;4990448;28;20089;-69
2023/04/20 10:05:15;;;;;;;7.70;5.90;;;;;;;17.60;82.30;99965.88;5005429;28;20039;-67
2023/04/20 10:07:41;;;;;;;10.88;6.72;;;;;;;18.05;85.76;99993.75;4989856;28;20038;-67
2023/04/20 10:10:12;;;;;;;8.85;6.50;;;;;;;18.33;82.71;99998.91;4991618;28;20034;-68
2023/04/20 10:12:51;;;;;;;6.57;5.85;;;;;;;18.57;80.34;99991.00;4991582;28;20029;-68
2023/04/20 10:15:17;;;;;;;6.57;5.82;;;;;;;18.77;77.56;99990.06;4991470;28;20030;-73
2023/04/20 10:17:43;;;;;;;9.00;6.30;;;;;;;18.65;80.15;99977.03;4991271;28;20473;-68
2023/04/20 10:20:26;;;;;;;7.90;6.20;;;;;;;18.99;78.07;99966.44;4991538;28;20046;-67
2023/04/20 10:22:53;;;;;;;6.97;6.28;;;;;;;18.73;78.32;99972.66;4991462;28;20065;-68
2023/04/20 10:25:46;;;;;;;9.65;6.35;;;;;;;18.75;77.75;99965.66;4991164;28;20026;-69
2023/04/20 10:28:11;;;;;;;7.88;5.50;;;;;;;18.19;75.74;99947.56;5008259;28;20089;-68
2023/04/20 10:30:49;;;;;;;6.97;6.25;;;;;;;18.66;82.87;99971.78;5008315;28;20571;-67
2023/04/20 10:33:16;;;;;;;8.35;5.80;;;;;;;19.04;80.24;99962.03;4994564;28;20693;-70
2023/04/20 10:35:53;;;;;;;7.97;6.15;;;;;;;19.19;79.24;99964.59;4993040;28;20080;-68
2023/04/20 10:38:38;;;;;;;7.32;5.85;;;;;;;19.16;74.03;99972.44;5002038;28;20050;-69
2023/04/20 10:41:16;;;;;;;8.15;5.90;;;;;;;19.14;77.62;99966.38;5010874;28;20041;-72
2023/04/20 10:43:44;;;;;;;7.85;6.50;;;;;;;19.32;71.64;99967.13;5011028;28;20119;-69
2023/04/20 10:46:27;;;;;;;7.22;6.53;;;;;;;19.50;73.72;99966.09;4993888;28;20085;-70
2023/04/20 10:49:00;;;;;;;10.43;6.43;;;;;;;18.92;73.48;99963.84;5014274;28;20072;-68
2023/04/20 10:51:34;;;;;;;6.88;6.10;;;;;;;19.10;72.36;99967.25;5009912;28;20395;-69
2023/04/20 10:54:15;;;;;;;8.80;5.95;;;;;;;19.37;72.96;99962.72;4981651;28;20038;-69
2023/04/20 10:56:57;;;;;;;6.90;5.90;;;;;;;19.81;72.63;99960.59;5005679;28;20038;-70
2023/04/20 10:59:50;;;;;;;9.02;6.20;;;;;;;19.94;74.90;99946.53;4966538;28;20050;-67
2023/04/20 11:02:29;;;;;;;8.38;6.10;;;;;;;19.77;70.66;99962.38;4956490;29;20113;-69
2023/04/20 11:05:15;;;;;;;6.70;5.80;;;;;;;19.81;73.16;99957.97;4943633;28;20035;-69
2023/04/20 11:08:03;;;;;;;7.68;5.78;;;;;;;19.54;66.14;99952.13;4956017;29;20061;-71
2023/04/20 11:10:48;;;;;;;9.13;6.35;;;;;;;20.00;70.97;99959.56;4955806;29;20039;-71
2023/04/20 11:13:28;;;;;;;7.85;6.40;;;;;;;20.35;68.72;99946.97;4931359;29;20043;-70
2023/04/20 11:16:10;;;;;;;9.02;5.80;;;;;;;20.37;63.68;99945.19;4956557;29;20125;-70